Time;durP1;ratioP1;P1;durP2;ratioP2;P2;SDS_P1;SDS_P2;PMS_P1;PMS_P2;Temp;Humidity;BMP_temperature;BMP_pressure;BME280_temperature;BME280_humidity;BME280_pressure;Samples;Min_cycle;Max_cycle;Signal;HPM_P1;HPM_P2
2020/12/23 00:01:40;;;;;;;32.63;16.08;;;-0.10;83.10;;;;;;5054928;28;20053;-66
2020/12/23 00:04:06;;;;;;;29.15;13.82;;;-0.10;83.10;;;;;;5055023;28;20039;-66
2020/12/23 00:06:35;;;;;;;61.50;21.65;;;-0.10;83.20;;;;;;5055354;28;20021;-66
2020/12/23 00:09:10;;;;;;;33.30;16.50;;;-0.10;83.20;;;;;;5055046;28;20417;-66
2020/12/23 00:11:35;;;;;;;53.65;21.88;;;-0.10;83.00;;;;;;5055178;28;20029;-66
2020/12/23 00:14:01;;;;;;;38.90;18.60;;;-0.20;82.60;;;;;;5054914;28;20036;-66
2020/12/23 00:16:27;;;;;;;43.10;21.38;;;-0.30;82.80;;;;;;5051074;28;20025;-66
2020/12/23 00:18:52;;;;;;;43.88;20.80;;;-0.30;83.00;;;;;;5043438;28;20108;-67
2020/12/23 00:21:18;;;;;;;45.03;18.73;;;-0.30;83.00;;;;;;5053583;28;20029;-67
2020/12/23 00:23:44;;;;;;;64.57;26.13;;;-0.30;83.20;;;;;;5053561;28;20021;-67
2020/12/23 00:26:11;;;;;;;120.63;44.20;;;-0.30;83.50;;;;;;5053875;28;20419;-67
2020/12/23 00:28:37;;;;;;;61.47;24.10;;;-0.30;83.50;;;;;;5053264;28;20490;-66
2020/12/23 00:31:03;;;;;;;35.83;16.83;;;-0.30;83.20;;;;;;5053456;28;20392;-66
2020/12/23 00:33:29;;;;;;;46.03;19.30;;;-0.30;83.00;;;;;;5051480;28;20036;-66
2020/12/23 00:35:55;;;;;;;27.23;13.40;;;-0.40;83.20;;;;;;5043655;28;20028;-66
2020/12/23 00:38:21;;;;;;;31.85;14.70;;;-0.40;83.10;;;;;;5053033;28;20029;-66
2020/12/23 00:40:47;;;;;;;28.08;13.60;;;-0.40;83.20;;;;;;5053403;28;20025;-66
2020/12/23 00:43:13;;;;;;;27.02;12.40;;;-0.40;83.10;;;;;;5054521;28;20032;-66
2020/12/23 00:45:38;;;;;;;17.95;8.40;;;-0.30;83.00;;;;;;5053087;28;20445;-66
2020/12/23 00:48:04;;;;;;;23.33;11.80;;;-0.30;82.90;;;;;;5054078;28;20036;-66
2020/12/23 00:50:30;;;;;;;19.95;9.90;;;-0.30;82.60;;;;;;5054298;28;20032;-66
2020/12/23 00:52:56;;;;;;;26.70;10.63;;;-0.30;82.30;;;;;;5053179;28;20021;-66
2020/12/23 00:55:22;;;;;;;25.95;12.63;;;-0.30;82.20;;;;;;5054114;28;20025;-66
2020/12/23 00:57:47;;;;;;;26.70;11.88;;;-0.40;82.40;;;;;;5053009;28;20025;-66
2020/12/23 01:00:13;;;;;;;26.73;12.63;;;-0.40;82.30;;;;;;5054176;28;20040;-66
2020/12/23 01:02:39;;;;;;;23.05;10.52;;;-0.40;82.30;;;;;;5053652;28;20546;-66
2020/12/23 01:05:05;;;;;;;31.30;13.70;;;-0.40;82.40;;;;;;5053035;28;20067;-66
2020/12/23 01:07:30;;;;;;;22.13;9.95;;;-0.40;82.20;;;;;;5053805;28;20399;-67
2020/12/23 01:09:56;;;;;;;24.75;10.63;;;-0.50;82.00;;;;;;5053971;28;20513;-66
2020/12/23 01:12:22;;;;;;;16.35;8.23;;;-0.50;82.10;;;;;;5054055;28;20146;-66
2020/12/23 01:14:47;;;;;;;15.48;7.30;;;-0.50;82.00;;;;;;5052288;28;20020;-67
2020/12/23 01:17:14;;;;;;;25.83;11.93;;;-0.50;81.70;;;;;;5053673;28;20099;-66
2020/12/23 01:19:41;;;;;;;27.45;13.00;;;-0.60;81.90;;;;;;5053682;28;20029;-66
2020/12/23 01:22:07;;;;;;;26.48;10.07;;;-0.50;82.30;;;;;;5052559;28;20028;-66
2020/12/23 01:24:32;;;;;;;23.65;9.45;;;-0.50;82.20;;;;;;5054120;28;20374;-66
2020/12/23 01:26:58;;;;;;;28.40;11.30;;;-0.50;82.10;;;;;;5048752;28;20029;-66
2020/12/23 01:29:24;;;;;;;18.23;8.68;;;-0.50;82.70;;;;;;5040084;28;20029;-67
2020/12/23 01:31:50;;;;;;;25.60;11.93;;;-0.50;82.30;;;;;;5050441;28;20124;-67
2020/12/23 01:34:15;;;;;;;30.35;13.55;;;-0.50;82.20;;;;;;5052726;28;20075;-66
2020/12/23 01:36:41;;;;;;;32.20;13.85;;;-0.50;82.10;;;;;;5052227;28;20032;-66
2020/12/23 01:39:07;;;;;;;31.52;13.98;;;-0.50;82.20;;;;;;5053684;28;20020;-66
2020/12/23 01:41:32;;;;;;;33.72;13.07;;;-0.50;82.30;;;;;;5053536;28;20021;-67
2020/12/23 01:43:58;;;;;;;28.30;12.48;;;-0.40;82.20;;;;;;5053346;28;20055;-66
2020/12/23 01:46:33;;;;;;;32.05;14.02;;;-0.40;82.20;;;;;;5053325;28;20448;-68
2020/12/23 01:49:18;;;;;;;34.63;14.70;;;-0.40;82.40;;;;;;5053320;28;20111;-67
2020/12/23 01:51:45;;;;;;;24.25;10.20;;;-0.40;81.80;;;;;;5051801;28;20371;-68
2020/12/23 01:54:14;;;;;;;28.13;11.48;;;-0.40;81.90;;;;;;5053061;28;20021;-67
2020/12/23 01:56:46;;;;;;;32.75;13.02;;;-0.40;81.90;;;;;;5053436;28;20036;-67
2020/12/23 01:59:12;;;;;;;27.02;9.20;;;-0.40;82.00;;;;;;5053029;28;20459;-67
2020/12/23 02:01:45;;;;;;;29.38;13.18;;;-0.40;82.00;;;;;;5052402;28;20041;-67
2020/12/23 02:04:11;;;;;;;28.08;13.43;;;-0.40;82.00;;;;;;5053046;28;20025;-67
2020/12/23 02:06:37;;;;;;;25.40;10.48;;;-0.40;82.00;;;;;;5053256;28;20052;-67
2020/12/23 02:09:04;;;;;;;26.95;10.32;;;-0.40;81.70;;;;;;5043965;28;20037;-67
2020/12/23 02:11:30;;;;;;;37.35;14.82;;;-0.30;81.70;;;;;;5051739;28;20442;-68
2020/12/23 02:13:56;;;;;;;35.28;15.63;;;-0.40;81.60;;;;;;5052935;28;20051;-68
2020/12/23 02:16:21;;;;;;;29.92;12.80;;;-0.40;81.70;;;;;;5053429;28;20025;-68
2020/12/23 02:18:47;;;;;;;32.75;13.75;;;-0.40;81.50;;;;;;5053190;28;20036;-67
2020/12/23 02:21:15;;;;;;;32.28;13.63;;;-0.40;81.50;;;;;;5053072;28;20025;-68
2020/12/23 02:23:41;;;;;;;35.80;16.08;;;-0.40;81.60;;;;;;5051449;28;20025;-67
2020/12/23 02:26:07;;;;;;;28.52;13.82;;;-0.30;81.80;;;;;;5052758;28;20103;-68
2020/12/23 02:28:33;;;;;;;32.72;14.63;;;-0.30;81.80;;;;;;5052877;28;20124;-67
2020/12/23 02:31:01;;;;;;;27.75;11.07;;;-0.30;81.80;;;;;;5051669;28;20037;-68
2020/12/23 02:33:27;;;;;;;29.48;11.52;;;-0.30;81.80;;;;;;5052578;28;20112;-68
2020/12/23 02:35:53;;;;;;;29.17;11.65;;;-0.30;81.80;;;;;;5052957;28;20099;-67
2020/12/23 02:38:18;;;;;;;39.08;17.75;;;-0.30;81.90;;;;;;5052563;28;20070;-68
2020/12/23 02:40:44;;;;;;;32.83;13.32;;;-0.30;81.90;;;;;;5052707;28;20039;-67
2020/12/23 02:43:10;;;;;;;38.83;15.85;;;-0.30;81.90;;;;;;5052514;28;20428;-68
2020/12/23 02:45:38;;;;;;;29.50;11.85;;;-0.20;81.80;;;;;;5045486;28;20022;-68
2020/12/23 02:48:04;;;;;;;19.27;8.82;;;-0.20;81.70;;;;;;5044783;28;20517;-67
2020/12/23 02:50:30;;;;;;;30.10;12.40;;;-0.20;81.70;;;;;;5052800;28;20025;-67
2020/12/23 02:52:56;;;;;;;30.00;12.43;;;-0.20;81.80;;;;;;5051303;28;20482;-68
2020/12/23 02:55:21;;;;;;;30.55;13.48;;;-0.30;81.80;;;;;;5052250;28;20104;-67
2020/12/23 02:57:47;;;;;;;25.45;11.43;;;-0.30;81.80;;;;;;5044961;28;20029;-66
2020/12/23 03:00:13;;;;;;;29.20;12.48;;;-0.30;81.80;;;;;;5046625;28;20052;-68
2020/12/23 03:02:38;;;;;;;19.73;9.23;;;-0.20;81.90;;;;;;5052547;28;20127;-66
2020/12/23 03:05:04;;;;;;;28.17;12.40;;;-0.30;82.00;;;;;;5052704;28;20064;-67
2020/12/23 03:07:30;;;;;;;26.95;12.40;;;-0.20;82.30;;;;;;5052232;28;20447;-67
2020/12/23 03:09:56;;;;;;;20.90;11.15;;;-0.20;82.40;;;;;;5052623;28;20029;-66
2020/12/23 03:12:21;;;;;;;23.00;12.00;;;-0.10;82.30;;;;;;5053132;28;20363;-67
2020/12/23 03:14:47;;;;;;;22.52;11.57;;;-0.10;82.10;;;;;;5056060;28;20062;-67
2020/12/23 03:17:13;;;;;;;18.85;8.60;;;-0.10;82.10;;;;;;5056233;28;20029;-67
2020/12/23 03:19:38;;;;;;;17.85;8.55;;;-0.10;81.90;;;;;;5055700;28;20029;-67
2020/12/23 03:22:04;;;;;;;13.70;7.82;;;-0.20;81.50;;;;;;5056029;28;20029;-67
2020/12/23 03:24:30;;;;;;;12.90;6.63;;;-0.20;81.40;;;;;;5055802;28;20017;-67
2020/12/23 03:26:56;;;;;;;20.17;10.07;;;-0.20;81.50;;;;;;5056206;28;20021;-67
2020/12/23 03:29:21;;;;;;;20.55;9.75;;;-0.20;81.60;;;;;;5055695;28;20368;-68
2020/12/23 03:31:47;;;;;;;22.50;11.05;;;-0.20;81.80;;;;;;5055986;28;20064;-67
2020/12/23 03:34:13;;;;;;;17.65;7.15;;;-0.20;81.70;;;;;;5055977;28;20029;-67
2020/12/23 03:36:38;;;;;;;22.50;12.35;;;-0.20;81.60;;;;;;5055965;28;20099;-67
2020/12/23 03:39:07;;;;;;;23.23;11.15;;;-0.20;81.60;;;;;;5054492;28;20029;-67
2020/12/23 03:41:34;;;;;;;22.25;11.07;;;-0.20;81.80;;;;;;5054331;28;20036;-66
2020/12/23 03:44:00;;;;;;;22.35;11.57;;;-0.10;81.90;;;;;;5055827;28;20025;-68
2020/12/23 03:46:26;;;;;;;24.02;10.73;;;-0.10;82.20;;;;;;5054381;28;20035;-68
2020/12/23 03:48:52;;;;;;;10.57;6.13;;;-0.10;82.10;;;;;;5055365;28;20104;-68
2020/12/23 03:51:17;;;;;;;16.25;7.38;;;0.00;82.10;;;;;;5055474;28;20033;-67
2020/12/23 03:53:43;;;;;;;12.43;5.40;;;-0.10;81.50;;;;;;5055601;28;20021;-67
2020/12/23 03:56:09;;;;;;;21.58;11.32;;;-0.10;81.30;;;;;;5055650;28;20383;-67
2020/12/23 03:58:35;;;;;;;19.65;9.80;;;-0.10;81.40;;;;;;5053962;28;20033;-66
2020/12/23 04:01:00;;;;;;;13.38;7.30;;;-0.10;81.50;;;;;;5054066;28;20064;-68
2020/12/23 04:03:27;;;;;;;12.52;6.32;;;-0.10;81.30;;;;;;5052503;28;20082;-68
2020/12/23 04:05:52;;;;;;;11.68;6.53;;;-0.10;81.40;;;;;;5042795;28;20050;-68
2020/12/23 04:08:18;;;;;;;21.65;11.38;;;-0.20;81.50;;;;;;5055196;28;20069;-68
2020/12/23 04:10:44;;;;;;;17.05;7.93;;;-0.20;81.70;;;;;;5054903;28;20020;-67
2020/12/23 04:13:09;;;;;;;19.13;9.82;;;-0.20;81.80;;;;;;5054968;28;20036;-67
2020/12/23 04:15:35;;;;;;;22.70;11.65;;;-0.20;81.80;;;;;;5055050;28;20024;-67
2020/12/23 04:18:01;;;;;;;19.70;9.77;;;-0.20;81.90;;;;;;5054919;28;20025;-68
2020/12/23 04:20:27;;;;;;;14.75;8.48;;;-0.20;81.80;;;;;;5054924;28;20021;-68
2020/12/23 04:22:52;;;;;;;13.88;8.05;;;-0.20;82.00;;;;;;5054714;28;20029;-68
2020/12/23 04:25:18;;;;;;;20.65;8.80;;;-0.20;82.00;;;;;;5053480;28;20023;-68
2020/12/23 04:27:44;;;;;;;23.35;10.48;;;-0.20;82.00;;;;;;5054401;28;20509;-67
2020/12/23 04:30:10;;;;;;;24.38;12.57;;;-0.20;82.30;;;;;;5053255;28;20021;-67
2020/12/23 04:32:35;;;;;;;12.75;6.80;;;-0.20;82.40;;;;;;5054685;28;20100;-68
2020/12/23 04:35:03;;;;;;;18.73;10.13;;;-0.20;82.50;;;;;;5054501;28;20452;-68
2020/12/23 04:37:33;;;;;;;21.20;11.18;;;-0.20;82.50;;;;;;5054421;28;20025;-68
2020/12/23 04:40:00;;;;;;;20.40;10.15;;;-0.10;82.60;;;;;;5054335;28;20040;-68
2020/12/23 04:42:27;;;;;;;23.25;12.93;;;-0.20;82.40;;;;;;5053300;28;20025;-68
2020/12/23 04:44:53;;;;;;;22.98;11.63;;;-0.20;82.30;;;;;;5054324;28;20021;-68
2020/12/23 04:47:25;;;;;;;21.60;10.85;;;-0.20;82.30;;;;;;5054185;28;20284;-68
2020/12/23 04:49:56;;;;;;;30.42;14.95;;;-0.20;82.60;;;;;;5034460;28;20041;-68
2020/12/23 04:52:35;;;;;;;26.42;13.07;;;-0.20;82.80;;;;;;5054869;28;20443;-68
2020/12/23 04:55:04;;;;;;;20.20;9.40;;;-0.20;83.00;;;;;;5052931;28;20083;-68
2020/12/23 04:57:30;;;;;;;21.27;12.05;;;-0.20;83.00;;;;;;5054190;28;20029;-68
2020/12/23 04:59:56;;;;;;;24.10;11.63;;;-0.20;82.80;;;;;;5054332;28;20444;-69
2020/12/23 05:02:23;;;;;;;15.85;7.93;;;-0.20;82.70;;;;;;5052436;28;20049;-68
2020/12/23 05:04:49;;;;;;;21.98;10.60;;;-0.20;82.80;;;;;;5053157;28;20033;-68
2020/12/23 05:07:19;;;;;;;20.77;11.80;;;-0.20;82.80;;;;;;5054044;28;20421;-68
2020/12/23 05:09:49;;;;;;;14.85;7.22;;;-0.20;82.80;;;;;;5054026;28;20379;-68
2020/12/23 05:12:19;;;;;;;25.60;12.10;;;-0.20;82.90;;;;;;5053854;28;20029;-68
2020/12/23 05:14:45;;;;;;;22.50;11.35;;;-0.20;82.90;;;;;;5043253;28;20361;-68
2020/12/23 05:17:11;;;;;;;24.17;10.90;;;-0.20;82.90;;;;;;5049654;28;20492;-67
2020/12/23 05:19:40;;;;;;;28.63;14.70;;;-0.20;83.00;;;;;;5053721;28;20048;-67
2020/12/23 05:22:07;;;;;;;27.25;13.80;;;-0.20;83.10;;;;;;5053568;28;20021;-67
2020/12/23 05:24:36;;;;;;;18.48;8.60;;;-0.20;83.40;;;;;;5053328;28;20132;-67
2020/12/23 05:27:04;;;;;;;18.00;9.02;;;-0.20;83.20;;;;;;5053780;28;20032;-69
2020/12/23 05:29:30;;;;;;;23.60;11.52;;;-0.20;83.20;;;;;;5048419;28;20116;-69
2020/12/23 05:31:56;;;;;;;26.40;13.85;;;-0.10;83.20;;;;;;5041589;28;20538;-69
2020/12/23 05:34:28;;;;;;;28.58;14.45;;;-0.10;83.00;;;;;;5038107;28;20025;-71
2020/12/23 05:36:53;;;;;;;18.90;9.55;;;-0.10;83.10;;;;;;5045001;28;20025;-69
2020/12/23 05:39:19;;;;;;;33.13;16.95;;;-0.20;83.00;;;;;;5038323;28;20037;-69
2020/12/23 05:41:46;;;;;;;25.83;13.07;;;-0.20;83.00;;;;;;5047421;28;20025;-69
2020/12/23 05:44:18;;;;;;;26.98;12.95;;;-0.20;83.10;;;;;;5034983;28;20140;-68
2020/12/23 05:46:49;;;;;;;30.63;14.75;;;-0.20;83.00;;;;;;5043370;28;20029;-69
2020/12/23 05:49:16;;;;;;;32.58;15.93;;;-0.20;83.00;;;;;;5050225;28;20083;-69
2020/12/23 05:51:43;;;;;;;15.20;8.15;;;-0.20;83.10;;;;;;5048393;28;20037;-69
2020/12/23 05:54:11;;;;;;;20.38;11.52;;;-0.20;83.20;;;;;;5041386;28;20029;-69
2020/12/23 05:56:42;;;;;;;25.00;10.82;;;-0.10;83.30;;;;;;5042139;28;20483;-66
2020/12/23 05:59:08;;;;;;;27.50;13.30;;;-0.10;83.30;;;;;;5039436;28;20383;-67
2020/12/23 06:01:37;;;;;;;23.58;11.57;;;-0.10;83.00;;;;;;5039214;28;20046;-67
2020/12/23 06:04:13;;;;;;;24.63;11.45;;;-0.10;82.90;;;;;;5038263;28;20055;-68
2020/12/23 06:06:43;;;;;;;19.70;9.50;;;-0.10;83.00;;;;;;5046420;28;20112;-69
2020/12/23 06:09:11;;;;;;;30.60;14.38;;;-0.10;83.10;;;;;;5037768;28;20068;-69
2020/12/23 06:11:54;;;;;;;32.00;15.07;;;-0.10;83.20;;;;;;5046717;28;20021;-69
2020/12/23 06:14:23;;;;;;;33.35;14.77;;;-0.10;83.20;;;;;;5047591;28;20127;-70
2020/12/23 06:16:58;;;;;;;26.85;12.07;;;-0.10;83.50;;;;;;5045564;28;20526;-68
2020/12/23 06:19:29;;;;;;;22.42;11.35;;;-0.10;83.30;;;;;;5041031;28;20086;-69
2020/12/23 06:21:59;;;;;;;36.13;15.50;;;-0.10;83.10;;;;;;5042051;28;20087;-69
2020/12/23 06:24:28;;;;;;;22.10;9.90;;;-0.10;83.30;;;;;;5045419;28;20090;-68
2020/12/23 06:26:56;;;;;;;28.48;13.43;;;0.00;83.40;;;;;;5046122;28;20029;-69
2020/12/23 06:29:24;;;;;;;27.25;12.82;;;0.00;83.60;;;;;;5035113;28;20087;-70
2020/12/23 06:32:04;;;;;;;33.22;15.80;;;0.10;83.60;;;;;;5052583;28;20078;-69
2020/12/23 06:34:43;;;;;;;32.85;14.73;;;0.10;83.50;;;;;;5042658;28;20030;-69
2020/12/23 06:37:27;;;;;;;33.20;16.58;;;0.10;83.40;;;;;;5057912;28;20033;-68
2020/12/23 06:39:56;;;;;;;46.15;20.77;;;0.20;83.10;;;;;;5054783;28;20071;-68
2020/12/23 06:42:26;;;;;;;41.83;20.98;;;0.20;83.10;;;;;;5051311;28;20028;-68
2020/12/23 06:44:51;;;;;;;49.58;22.13;;;0.20;83.20;;;;;;5051314;28;20021;-67
2020/12/23 06:47:21;;;;;;;34.30;16.50;;;0.20;83.00;;;;;;5051566;28;20037;-69
2020/12/23 06:49:52;;;;;;;38.42;17.40;;;0.20;83.00;;;;;;5048423;28;20527;-67
2020/12/23 06:52:21;;;;;;;26.05;13.18;;;0.20;83.00;;;;;;5050653;28;20119;-67
2020/12/23 06:54:48;;;;;;;32.60;16.33;;;0.20;82.90;;;;;;5041257;28;20025;-68
2020/12/23 06:57:36;;;;;;;37.80;19.90;;;0.20;82.90;;;;;;5048365;28;20025;-67
2020/12/23 07:00:08;;;;;;;43.25;19.08;;;0.20;82.80;;;;;;5048681;28;20438;-68
2020/12/23 07:02:39;;;;;;;35.50;15.95;;;0.20;82.90;;;;;;5047459;28;20391;-66
2020/12/23 07:05:05;;;;;;;40.47;18.98;;;0.20;82.70;;;;;;5052957;28;20379;-69
2020/12/23 07:07:42;;;;;;;38.45;18.67;;;0.30;82.70;;;;;;5057038;28;20035;-64
2020/12/23 07:10:17;;;;;;;23.00;10.82;;;0.20;82.80;;;;;;5056171;28;20390;-67
2020/12/23 07:12:49;;;;;;;34.30;16.42;;;0.30;83.00;;;;;;5055218;28;20032;-66
2020/12/23 07:15:24;;;;;;;43.97;19.02;;;0.30;82.90;;;;;;5050934;28;20040;-67
2020/12/23 07:17:51;;;;;;;45.00;18.38;;;0.30;82.90;;;;;;5056656;28;20108;-66
2020/12/23 07:20:21;;;;;;;35.05;16.30;;;0.30;83.00;;;;;;5049846;28;20053;-65
2020/12/23 07:22:48;;;;;;;33.95;16.58;;;0.30;83.00;;;;;;5044312;28;20163;-66
2020/12/23 07:25:24;;;;;;;32.22;15.85;;;0.30;83.10;;;;;;5038851;28;20070;-66
2020/12/23 07:27:58;;;;;;;35.50;16.10;;;0.40;83.10;;;;;;5050395;28;20037;-66
2020/12/23 07:30:27;;;;;;;25.08;12.38;;;0.50;83.40;;;;;;5043009;28;20108;-66
2020/12/23 07:33:12;;;;;;;33.35;14.50;;;0.50;83.10;;;;;;5045700;28;20488;-67
2020/12/23 07:35:39;;;;;;;26.50;13.13;;;0.50;82.80;;;;;;5045755;28;20037;-66
2020/12/23 07:38:07;;;;;;;62.28;23.83;;;0.50;83.00;;;;;;5051868;28;20037;-67
2020/12/23 07:40:34;;;;;;;34.00;16.00;;;0.50;82.80;;;;;;5048853;28;20473;-65
2020/12/23 07:43:00;;;;;;;44.70;17.58;;;0.50;82.70;;;;;;5055493;28;20025;-65
2020/12/23 07:45:27;;;;;;;22.77;10.50;;;0.50;82.50;;;;;;5041021;28;20037;-65
2020/12/23 07:47:57;;;;;;;25.05;10.63;;;0.50;82.50;;;;;;5055392;28;20182;-66
2020/12/23 07:50:24;;;;;;;50.58;20.70;;;0.60;82.50;;;;;;5041961;28;20152;-65
2020/12/23 07:52:50;;;;;;;27.58;13.68;;;0.60;82.80;;;;;;5054188;28;20474;-66
2020/12/23 07:55:18;;;;;;;24.73;12.20;;;0.60;82.50;;;;;;5053909;28;20032;-66
2020/12/23 07:57:44;;;;;;;16.88;7.55;;;0.60;82.30;;;;;;5054952;28;20391;-66
2020/12/23 08:00:12;;;;;;;20.40;10.15;;;0.60;82.30;;;;;;5054716;28;20029;-66
2020/12/23 08:02:42;;;;;;;24.70;10.57;;;0.60;82.10;;;;;;5055140;28;20080;-66
2020/12/23 08:05:14;;;;;;;20.95;11.23;;;0.60;82.20;;;;;;5054972;28;20382;-66
2020/12/23 08:07:50;;;;;;;25.15;11.15;;;0.60;82.10;;;;;;5053516;28;20047;-66
2020/12/23 08:10:18;;;;;;;29.08;14.30;;;0.60;82.00;;;;;;5055483;28;20065;-66
2020/12/23 08:13:01;;;;;;;27.90;14.85;;;0.60;82.20;;;;;;5054482;28;20364;-66
2020/12/23 08:15:27;;;;;;;22.52;11.55;;;0.70;82.70;;;;;;5053453;28;20387;-66
2020/12/23 08:18:01;;;;;;;25.33;12.18;;;0.70;82.30;;;;;;5054726;28;20036;-65
2020/12/23 08:20:27;;;;;;;25.70;12.52;;;0.70;82.20;;;;;;5055055;28;20085;-65
2020/12/23 08:22:53;;;;;;;24.73;12.95;;;0.70;82.30;;;;;;5053962;28;20025;-65
2020/12/23 08:25:21;;;;;;;29.27;13.63;;;0.80;82.40;;;;;;5054696;28;20459;-70
2020/12/23 08:27:49;;;;;;;85.88;29.00;;;0.80;82.30;;;;;;5040813;28;20357;-66
2020/12/23 08:30:35;;;;;;;32.60;14.30;;;0.80;82.30;;;;;;5055122;28;20061;-66
2020/12/23 08:33:12;;;;;;;38.20;16.90;;;0.90;82.40;;;;;;5054378;28;20021;-67
2020/12/23 08:35:43;;;;;;;33.00;16.33;;;0.90;82.20;;;;;;5054457;28;20025;-67
2020/12/23 08:38:20;;;;;;;35.83;17.85;;;1.00;82.10;;;;;;5053513;28;20115;-65
2020/12/23 08:40:54;;;;;;;36.83;18.75;;;1.00;82.10;;;;;;5054159;28;20070;-65
2020/12/23 08:43:25;;;;;;;28.70;14.30;;;1.00;82.00;;;;;;5054512;28;20486;-65
2020/12/23 08:45:51;;;;;;;33.53;15.63;;;1.10;81.80;;;;;;5053366;28;20029;-71
2020/12/23 08:48:19;;;;;;;25.00;11.38;;;1.10;81.90;;;;;;5054159;28;20033;-65
2020/12/23 08:50:56;;;;;;;28.60;14.93;;;1.10;81.60;;;;;;5041871;28;20034;-66
2020/12/23 08:53:32;;;;;;;27.38;12.82;;;1.10;81.70;;;;;;5051551;28;20025;-66
2020/12/23 08:55:58;;;;;;;27.48;13.13;;;1.10;81.60;;;;;;5054182;28;20025;-65
2020/12/23 08:58:24;;;;;;;23.42;11.43;;;1.10;81.50;;;;;;5052867;28;20060;-65
2020/12/23 09:01:00;;;;;;;22.73;11.43;;;1.20;81.40;;;;;;5054317;28;20032;-65
2020/12/23 09:03:27;;;;;;;;;;;1.20;81.60;;;;;;5053018;28;20025;-65
2020/12/23 09:05:56;;;;;;;24.58;11.57;;;1.20;81.40;;;;;;5052958;28;20351;-65
2020/12/23 09:08:31;;;;;;;24.40;10.80;;;1.20;81.20;;;;;;5052630;28;20036;-65
2020/12/23 09:10:58;;;;;;;18.80;9.10;;;1.20;81.10;;;;;;5054332;28;20102;-65
2020/12/23 09:13:31;;;;;;;34.90;16.38;;;1.10;80.90;;;;;;5053580;28;20029;-66
2020/12/23 09:15:58;;;;;;;22.15;9.20;;;1.10;81.10;;;;;;5052444;28;20032;-66
2020/12/23 09:18:23;;;;;;;30.15;14.55;;;1.10;81.30;;;;;;5052257;28;20033;-66
2020/12/23 09:21:02;;;;;;;55.08;19.25;;;1.10;81.30;;;;;;5046861;28;20030;-66
2020/12/23 09:23:29;;;;;;;55.08;20.35;;;1.10;81.20;;;;;;5047257;28;20025;-66
2020/12/23 09:25:55;;;;;;;31.00;14.82;;;1.10;81.20;;;;;;5054232;28;20385;-66
2020/12/23 09:28:25;;;;;;;57.65;25.90;;;1.10;81.10;;;;;;5053593;28;20032;-66
2020/12/23 09:30:52;;;;;;;39.45;18.63;;;1.20;81.60;;;;;;5047772;28;20064;-66
2020/12/23 09:33:22;;;;;;;34.90;15.57;;;1.20;81.60;;;;;;5044144;28;20187;-66
2020/12/23 09:36:03;;;;;;;33.38;15.75;;;1.20;81.10;;;;;;5052245;28;20028;-66
2020/12/23 09:38:35;;;;;;;31.20;15.25;;;1.20;81.30;;;;;;5053763;28;20025;-66
2020/12/23 09:41:09;;;;;;;30.30;13.40;;;1.30;81.30;;;;;;5051983;28;20466;-66
2020/12/23 09:43:36;;;;;;;37.67;17.65;;;1.30;81.10;;;;;;5053153;28;20029;-67
2020/12/23 09:46:05;;;;;;;38.80;18.42;;;1.30;81.20;;;;;;5048610;28;20041;-66
2020/12/23 09:48:31;;;;;;;38.85;16.50;;;1.40;81.50;;;;;;5042890;28;20025;-66
2020/12/23 09:50:58;;;;;;;49.00;20.65;;;1.50;81.50;;;;;;5053559;28;20103;-66
2020/12/23 09:53:24;;;;;;;34.65;16.83;;;1.50;81.50;;;;;;5053085;28;20475;-67
2020/12/23 09:55:50;;;;;;;35.47;14.95;;;1.60;81.40;;;;;;5053026;28;20036;-66
2020/12/23 09:58:17;;;;;;;43.03;17.90;;;1.60;81.10;;;;;;5051405;28;20024;-66
2020/12/23 10:00:45;;;;;;;48.25;20.90;;;1.70;81.10;;;;;;5052843;28;20036;-66
2020/12/23 10:03:12;;;;;;;19.58;9.45;;;1.80;81.50;;;;;;5051301;28;20128;-66
2020/12/23 10:05:38;;;;;;;31.60;14.98;;;2.00;81.80;;;;;;5052915;28;20520;-66
2020/12/23 10:08:06;;;;;;;30.48;12.23;;;2.20;81.80;;;;;;5051439;28;20033;-73
2020/12/23 10:10:33;;;;;;;20.63;10.68;;;2.50;81.70;;;;;;5052801;28;20056;-66
2020/12/23 10:12:59;;;;;;;32.75;14.63;;;2.70;80.50;;;;;;5052000;28;20056;-67
2020/12/23 10:15:25;;;;;;;22.17;10.63;;;2.70;79.30;;;;;;5052403;28;20329;-67
2020/12/23 10:17:51;;;;;;;25.88;12.02;;;2.60;78.50;;;;;;5053139;28;20028;-65
2020/12/23 10:20:16;;;;;;;31.65;15.43;;;2.50;78.40;;;;;;5052675;28;20387;-66
2020/12/23 10:22:42;;;;;;;36.53;17.65;;;2.40;78.10;;;;;;5052838;28;20067;-66
2020/12/23 10:25:09;;;;;;;25.42;12.15;;;2.40;78.50;;;;;;5052463;28;20029;-66
2020/12/23 10:27:35;;;;;;;31.02;12.05;;;2.40;78.70;;;;;;5052403;28;20075;-65
2020/12/23 10:30:03;;;;;;;25.08;13.77;;;2.40;78.80;;;;;;5052677;28;20032;-65
2020/12/23 10:32:30;;;;;;;28.70;11.32;;;2.40;78.70;;;;;;5052866;28;20126;-66
2020/12/23 10:34:55;;;;;;;29.45;13.93;;;2.40;78.50;;;;;;5051415;28;20479;-66
2020/12/23 10:37:23;;;;;;;28.40;13.32;;;2.30;78.40;;;;;;5050994;28;20115;-65
2020/12/23 10:39:49;;;;;;;28.83;13.98;;;2.30;78.10;;;;;;5052542;28;20493;-65
2020/12/23 10:42:14;;;;;;;28.42;12.32;;;2.20;78.00;;;;;;5051326;28;20053;-66
2020/12/23 10:44:40;;;;;;;27.83;10.27;;;2.20;77.90;;;;;;5052653;28;20059;-66
2020/12/23 10:47:06;;;;;;;22.33;10.45;;;2.10;77.60;;;;;;5051433;28;20025;-66
2020/12/23 10:49:32;;;;;;;24.45;11.38;;;2.00;77.50;;;;;;5050808;28;20074;-65
2020/12/23 10:51:58;;;;;;;18.02;9.05;;;1.90;77.60;;;;;;5051500;28;20490;-66
2020/12/23 10:54:25;;;;;;;23.73;10.45;;;1.90;77.80;;;;;;5052689;28;20033;-66
2020/12/23 10:56:51;;;;;;;27.13;14.02;;;1.80;77.80;;;;;;5051129;28;20070;-66
2020/12/23 10:59:18;;;;;;;24.30;9.90;;;1.70;78.10;;;;;;5052808;28;20021;-66
2020/12/23 11:01:44;;;;;;;20.83;9.25;;;1.70;78.40;;;;;;5038280;28;20045;-65
2020/12/23 11:04:10;;;;;;;34.05;15.07;;;1.70;78.50;;;;;;5052860;28;20033;-66
2020/12/23 11:06:36;;;;;;;23.85;11.35;;;1.70;78.80;;;;;;5052209;28;20036;-66
2020/12/23 11:09:03;;;;;;;36.88;17.05;;;1.70;78.80;;;;;;5052205;28;20021;-66
2020/12/23 11:11:29;;;;;;;24.65;12.23;;;1.60;78.80;;;;;;5050835;28;20055;-67
2020/12/23 11:13:55;;;;;;;22.88;10.88;;;1.60;78.90;;;;;;5050920;28;20021;-65
2020/12/23 11:16:21;;;;;;;34.78;15.75;;;1.60;78.90;;;;;;5052410;28;20032;-66
2020/12/23 11:18:48;;;;;;;36.92;16.88;;;1.60;79.10;;;;;;5052290;28;20025;-66
2020/12/23 11:21:14;;;;;;;40.50;16.50;;;1.60;79.40;;;;;;5052301;28;20036;-66
2020/12/23 11:23:41;;;;;;;32.65;15.23;;;1.60;79.60;;;;;;5050510;28;20033;-66
2020/12/23 11:26:18;;;;;;;27.67;12.30;;;1.60;79.60;;;;;;5051769;28;20029;-66
2020/12/23 11:28:44;;;;;;;27.55;12.13;;;1.60;79.30;;;;;;5052125;28;20375;-66
2020/12/23 11:31:12;;;;;;;28.83;13.02;;;1.60;79.30;;;;;;5052365;28;20056;-66
2020/12/23 11:33:38;;;;;;;31.85;15.68;;;1.50;79.10;;;;;;5051599;28;20491;-66
2020/12/23 11:36:03;;;;;;;25.48;11.88;;;1.50;79.10;;;;;;5055612;28;20065;-66
2020/12/23 11:38:29;;;;;;;29.33;13.38;;;1.50;79.20;;;;;;5055852;28;20370;-66
2020/12/23 11:40:55;;;;;;;36.53;16.05;;;1.50;79.30;;;;;;5054148;28;20028;-66
2020/12/23 11:43:24;;;;;;;48.25;20.27;;;1.50;79.50;;;;;;5055609;28;20021;-67
2020/12/23 11:46:49;;;;;;;;;;;;;;;;;;;;;
2020/12/23 11:49:41;;;;;;;;;;;;;;;;;;;;;
2020/12/23 11:52:51;;;;;;;;;;;;;;;;;;;;;
2020/12/23 11:56:15;;;;;;;37.20;16.88;;;1.40;80.00;;;;;;5055534;28;20033;-66
2020/12/23 11:58:41;;;;;;;29.63;13.15;;;1.40;80.00;;;;;;5055004;28;20029;-66
2020/12/23 12:01:06;;;;;;;36.03;16.52;;;1.30;79.90;;;;;;5055512;28;20100;-66
2020/12/23 12:03:32;;;;;;;30.58;12.77;;;1.30;80.00;;;;;;5055430;28;20127;-67
2020/12/23 12:05:58;;;;;;;32.88;13.57;;;1.30;80.20;;;;;;5055372;28;20021;-65
2020/12/23 12:08:24;;;;;;;23.95;11.55;;;1.30;80.10;;;;;;5053861;28;20029;-67
2020/12/23 12:10:49;;;;;;;28.23;12.68;;;1.30;80.10;;;;;;5053889;28;20380;-66
2020/12/23 12:13:15;;;;;;;50.15;21.08;;;1.30;80.10;;;;;;5054856;28;20025;-66
2020/12/23 12:15:41;;;;;;;29.80;11.43;;;1.30;80.20;;;;;;5054822;28;20024;-66
2020/12/23 12:18:06;;;;;;;28.85;13.63;;;1.30;80.30;;;;;;5053924;28;20063;-66
2020/12/23 12:20:32;;;;;;;31.88;14.30;;;1.30;80.20;;;;;;5053559;28;20112;-66
2020/12/23 12:22:58;;;;;;;31.05;12.63;;;1.30;80.30;;;;;;5055038;28;20098;-66
2020/12/23 12:25:24;;;;;;;45.47;19.48;;;1.30;80.70;;;;;;5053403;28;20051;-66
2020/12/23 12:27:49;;;;;;;52.38;22.08;;;1.30;80.80;;;;;;5054674;28;20391;-66
2020/12/23 12:30:18;;;;;;;39.80;17.98;;;1.40;80.90;;;;;;5053225;28;20029;-66
2020/12/23 12:32:45;;;;;;;37.97;16.40;;;1.30;80.60;;;;;;5054992;28;20021;-66
2020/12/23 12:35:11;;;;;;;39.03;19.10;;;1.30;80.30;;;;;;5055004;28;20028;-66
2020/12/23 12:37:37;;;;;;;41.05;18.75;;;1.30;80.50;;;;;;5054240;28;20032;-66
2020/12/23 12:40:03;;;;;;;45.08;17.33;;;1.30;80.80;;;;;;5053521;28;20029;-65
2020/12/23 12:42:28;;;;;;;37.72;18.23;;;1.30;80.90;;;;;;5052916;28;20138;-66
2020/12/23 12:44:54;;;;;;;37.17;17.52;;;1.30;80.80;;;;;;5052792;28;20087;-65